Observation data for Northwest San Angelo on 06/24/2019      Previous  Date  Next       Current Mesonet Observations  Soil Data  Daily Summary Page  Observations in Plain Language
KASU 240500Z 21006KT 28/19 A2984 RMK A01 T02770185  RH  060%=      5-min Rain = 0
KASU 240505Z 22006KT 28/19 A2984 RMK A01 T02750186  RH  062%=      5-min Rain = 0
KASU 240510Z 21007KT 28/19 A2984 RMK A01 T02750189  RH  063%=      5-min Rain = 0
KASU 240515Z 20007KT 28/19 A2984 RMK A01 T02750191  RH  064%=      5-min Rain = 0
KASU 240520Z 21006KT 27/19 A2983 RMK A01 T02730192  RH  065%=      5-min Rain = 0
KASU 240525Z 20006KT 27/19 A2983 RMK A01 T02720192  RH  065%=      5-min Rain = 0
KASU 240530Z 20006KT 27/19 A2983 RMK A01 T02690193  RH  067%=      5-min Rain = 0
KASU 240535Z 19005KT 27/19 A2984 RMK A01 T02660193  RH  068%=      5-min Rain = 0
KASU 240540Z 18003KT 26/19 A2984 RMK A01 T02620193  RH  070%=      5-min Rain = 0
KASU 240545Z 17002KT 26/19 A2984 RMK A01 T02590193  RH  071%=      5-min Rain = 0
KASU 240550Z 15002KT 25/19 A2984 RMK A01 T02540193  RH  073%=      5-min Rain = 0
KASU 240555Z 14003KT 25/19 A2984 RMK A01 T02480193  RH  075%=      5-min Rain = 0
KASU 240600Z 11003KT 25/19 A2984 RMK A01 T02450193  RH  077%=      5-min Rain = 0
KASU 240605Z 09003KT 24/19 A2984 RMK A01 T02420193  RH  078%=      5-min Rain = 0
KASU 240610Z 10003KT 24/20 A2984 RMK A01 T02420195  RH  080%=      5-min Rain = 0
KASU 240615Z 11004KT 24/20 A2984 RMK A01 T02420195  RH  080%=      5-min Rain = 0
KASU 240620Z 10005KT 24/19 A2984 RMK A01 T02380194  RH  081%=      5-min Rain = 0
KASU 240625Z 11005KT 24/20 A2984 RMK A01 T02380195  RH  082%=      5-min Rain = 0
KASU 240630Z 12006KT 24/20 A2984 RMK A01 T02400199  RH  082%=      5-min Rain = 0
KASU 240635Z 11005KT 24/20 A2985 RMK A01 T02430201  RH  082%=      5-min Rain = 0
KASU 240640Z 11005KT 24/20 A2984 RMK A01 T02420201  RH  082%=      5-min Rain = 0
KASU 240645Z 12004KT 24/20 A2985 RMK A01 T02420201  RH  083%=      5-min Rain = 0
KASU 240650Z 11003KT 24/20 A2985 RMK A01 T02420201  RH  083%=      5-min Rain = 0
KASU 240655Z 09004KT 24/20 A2985 RMK A01 T02430201  RH  082%=      5-min Rain = 0
KASU 240700Z 09004KT 24/20 A2985 RMK A01 T02420200  RH  082%=      5-min Rain = 0
KASU 240705Z 10004KT 24/20 A2985 RMK A01 T02390198  RH  082%=      5-min Rain = 0
KASU 240710Z 10002KT 24/20 A2984 RMK A01 T02380198  RH  083%=      5-min Rain = 0
KASU 240715Z 10000KT 24/20 A2984 RMK A01 T02380198  RH  083%=      5-min Rain = 0
KASU 240720Z 07001KT 24/20 A2984 RMK A01 T02390200  RH  083%=      5-min Rain = 0
KASU 240725Z 10001KT 24/20 A2984 RMK A01 T02390199  RH  083%=      5-min Rain = 0
KASU 240730Z 10003KT 24/20 A2984 RMK A01 T02370198  RH  083%=      5-min Rain = 0
KASU 240735Z 11002KT 24/20 A2984 RMK A01 T02350196  RH  083%=      5-min Rain = 0
KASU 240740Z 12003KT 23/20 A2984 RMK A01 T02340196  RH  084%=      5-min Rain = 0
KASU 240745Z 11003KT 23/20 A2984 RMK A01 T02320195  RH  084%=      5-min Rain = 0
KASU 240750Z 14002KT 23/20 A2984 RMK A01 T02320195  RH  084%=      5-min Rain = 0
KASU 240755Z 15002KT 23/20 A2984 RMK A01 T02310195  RH  085%=      5-min Rain = 0
KASU 240800Z 18000KT 23/20 A2984 RMK A01 T02340198  RH  085%=      5-min Rain = 0
KASU 240805Z 00000KT 24/20 A2984 RMK A01 T02360200  RH  085%=      5-min Rain = 0
KASU 240810Z 06000KT 24/20 A2984 RMK A01 T02370200  RH  085%=      5-min Rain = 0
KASU 240815Z 08000KT 23/20 A2984 RMK A01 T02320195  RH  084%=      5-min Rain = 0
KASU 240820Z 18001KT 23/19 A2984 RMK A01 T02300194  RH  085%=      5-min Rain = 0
KASU 240825Z 20002KT 23/19 A2984 RMK A01 T02300194  RH  085%=      5-min Rain = 0
KASU 240830Z 21003KT 23/19 A2984 RMK A01 T02310194  RH  084%=      5-min Rain = 0
KASU 240835Z 20002KT 23/19 A2984 RMK A01 T02310194  RH  084%=      5-min Rain = 0
KASU 240840Z 21002KT 23/20 A2984 RMK A01 T02330197  RH  085%=      5-min Rain = 0
KASU 240845Z 22002KT 23/20 A2984 RMK A01 T02310196  RH  085%=      5-min Rain = 0
KASU 240850Z 21002KT 23/20 A2984 RMK A01 T02310196  RH  086%=      5-min Rain = 0
KASU 240855Z 21002KT 23/20 A2984 RMK A01 T02300196  RH  086%=      5-min Rain = 0
KASU 240900Z 20002KT 23/20 A2984 RMK A01 T02300197  RH  086%=      5-min Rain = 0
KASU 240905Z 20002KT 23/20 A2983 RMK A01 T02300197  RH  087%=      5-min Rain = 0
KASU 240910Z 00000KT 23/20 A2983 RMK A01 T02310198  RH  087%=      5-min Rain = 0
KASU 240915Z 24000KT 23/20 A2984 RMK A01 T02290197  RH  087%=      5-min Rain = 0
KASU 240920Z 24000KT 23/20 A2984 RMK A01 T02270196  RH  087%=      5-min Rain = 0
KASU 240925Z 26000KT 23/19 A2984 RMK A01 T02250193  RH  087%=      5-min Rain = 0
KASU 240930Z 24001KT 22/19 A2984 RMK A01 T02240192  RH  087%=      5-min Rain = 0
KASU 240935Z 19001KT 22/19 A2983 RMK A01 T02230192  RH  087%=      5-min Rain = 0
KASU 240940Z 19000KT 22/19 A2984 RMK A01 T02240194  RH  088%=      5-min Rain = 0
KASU 240945Z 00000KT 22/19 A2984 RMK A01 T02220192  RH  088%=      5-min Rain = 0
KASU 240950Z 15000KT 22/19 A2984 RMK A01 T02230193  RH  088%=      5-min Rain = 0
KASU 240955Z 18000KT 22/19 A2984 RMK A01 T02230194  RH  088%=      5-min Rain = 0
KASU 241000Z 17000KT 22/19 A2984 RMK A01 T02240194  RH  088%=      5-min Rain = 0
KASU 241005Z 23001KT 22/19 A2984 RMK A01 T02210192  RH  088%=      5-min Rain = 0
KASU 241010Z 23001KT 22/19 A2984 RMK A01 T02200191  RH  088%=      5-min Rain = 0
KASU 241015Z 18001KT 22/19 A2984 RMK A01 T02220193  RH  088%=      5-min Rain = 0
KASU 241020Z 14001KT 22/19 A2984 RMK A01 T02150186  RH  088%=      5-min Rain = 0
KASU 241025Z 14003KT 21/19 A2984 RMK A01 T02140186  RH  089%=      5-min Rain = 0
KASU 241030Z 16003KT 21/19 A2984 RMK A01 T02140187  RH  089%=      5-min Rain = 0
KASU 241035Z 16002KT 22/19 A2984 RMK A01 T02170190  RH  089%=      5-min Rain = 0
KASU 241040Z 18001KT 22/19 A2984 RMK A01 T02180192  RH  090%=      5-min Rain = 0
KASU 241045Z 10002KT 21/19 A2984 RMK A01 T02140187  RH  090%=      5-min Rain = 0
KASU 241050Z 07002KT 21/19 A2984 RMK A01 T02110185  RH  090%=      5-min Rain = 0
KASU 241055Z 00000KT 22/19 A2984 RMK A01 T02160191  RH  090%=      5-min Rain = 0
KASU 241100Z 07000KT 22/19 A2984 RMK A01 T02170192  RH  090%=      5-min Rain = 0
KASU 241105Z 09002KT 22/19 A2984 RMK A01 T02160191  RH  090%=      5-min Rain = 0
KASU 241110Z 06002KT 22/20 A2985 RMK A01 T02200196  RH  091%=      5-min Rain = 0
KASU 241115Z 06002KT 22/20 A2985 RMK A01 T02220198  RH  091%=      5-min Rain = 0
KASU 241120Z 08003KT 22/20 A2985 RMK A01 T02230199  RH  091%=      5-min Rain = 0
KASU 241125Z 06003KT 22/20 A2985 RMK A01 T02240199  RH  091%=      5-min Rain = 0
KASU 241130Z 07003KT 22/20 A2985 RMK A01 T02240199  RH  091%=      5-min Rain = 0
KASU 241135Z 08004KT 22/20 A2985 RMK A01 T02220197  RH  091%=      5-min Rain = 0
KASU 241140Z 08004KT 22/19 A2985 RMK A01 T02190194  RH  091%=      5-min Rain = 0
KASU 241145Z 07004KT 22/19 A2985 RMK A01 T02190194  RH  091%=      5-min Rain = 0
KASU 241150Z 07004KT 22/20 A2985 RMK A01 T02200196  RH  091%=      5-min Rain = 0
KASU 241155Z 07004KT 22/20 A2986 RMK A01 T02220197  RH  091%=      5-min Rain = 0
KASU 241200Z 07004KT 22/20 A2986 RMK A01 T02220198  RH  091%=      5-min Rain = 0
KASU 241205Z 06005KT 22/20 A2986 RMK A01 T02230198  RH  091%=      5-min Rain = 0
KASU 241210Z 01006G11KT 23/20 A2988 RMK A01 T02250200  RH  091%=      5-min Rain = 0
KASU 241215Z 01008KT 23/21 A2989 RMK A01 T02290205  RH  091%=      5-min Rain = 0
KASU 241220Z 02005KT 23/21 A2989 RMK A01 T02330208  RH  091%=      5-min Rain = 0
KASU 241225Z 03004KT 24/21 A2989 RMK A01 T02350209  RH  090%=      5-min Rain = 0
KASU 241230Z 05005KT 24/21 A2989 RMK A01 T02380211  RH  090%=      5-min Rain = 0
KASU 241235Z 04004KT 24/21 A299 RMK A01 T02380209  RH  089%=      5-min Rain = 0
KASU 241240Z 04005KT 24/21 A299 RMK A01 T02380207  RH  088%=      5-min Rain = 0
KASU 241245Z 04007G12KT 23/20 A299 RMK A01 T02340202  RH  087%=      5-min Rain = 0
KASU 241250Z 04008G14KT 23/20 A2991 RMK A01 T02310196  RH  085%=      5-min Rain = 0
KASU 241255Z 05007KT 23/19 A2991 RMK A01 T02300193  RH  084%=      5-min Rain = 0
KASU 241300Z 06007KT 23/19 A2991 RMK A01 T02320194  RH  084%=      5-min Rain = 0
KASU 241305Z 05007KT 23/19 A2991 RMK A01 T02320194  RH  084%=      5-min Rain = 0
KASU 241310Z 06007KT 23/19 A2991 RMK A01 T02340194  RH  083%=      5-min Rain = 0
KASU 241315Z 05007KT 24/20 A2991 RMK A01 T02350195  RH  082%=      5-min Rain = 0
KASU 241320Z 06006G11KT 24/20 A2991 RMK A01 T02390196  RH  081%=      5-min Rain = 0
KASU 241325Z 06006KT 25/20 A2991 RMK A01 T02450198  RH  080%=      5-min Rain = 0
KASU 241330Z 06007KT 25/20 A2991 RMK A01 T02480198  RH  078%=      5-min Rain = 0
KASU 241335Z 06007KT 25/20 A2991 RMK A01 T02510198  RH  077%=      5-min Rain = 0
KASU 241340Z 07007KT 25/20 A2992 RMK A01 T02540199  RH  076%=      5-min Rain = 0
KASU 241345Z 07006KT 26/20 A2992 RMK A01 T02570199  RH  075%=      5-min Rain = 0
KASU 241350Z 07005KT 26/20 A2992 RMK A01 T02620203  RH  074%=      5-min Rain = 0
KASU 241355Z 08007KT 27/20 A2992 RMK A01 T02650203  RH  073%=      5-min Rain = 0
KASU 241400Z 09007KT 27/21 A2992 RMK A01 T02670205  RH  073%=      5-min Rain = 0
KASU 241405Z 09007KT 27/21 A2992 RMK A01 T02690205  RH  072%=      5-min Rain = 0
KASU 241410Z 08008KT 27/21 A2992 RMK A01 T02690206  RH  072%=      5-min Rain = 0
KASU 241415Z 07007KT 27/21 A2992 RMK A01 T02730207  RH  071%=      5-min Rain = 0
KASU 241420Z 09008KT 27/21 A2992 RMK A01 T02740208  RH  071%=      5-min Rain = 0
KASU 241425Z 08008KT 28/21 A2992 RMK A01 T02750208  RH  071%=      5-min Rain = 0
KASU 241430Z 07008KT 28/21 A2993 RMK A01 T02780210  RH  071%=      5-min Rain = 0
KASU 241435Z 08008KT 28/21 A2993 RMK A01 T02770208  RH  070%=      5-min Rain = 0
KASU 241440Z 08008KT 28/21 A2993 RMK A01 T02770209  RH  070%=      5-min Rain = 0
KASU 241445Z 08008KT 28/21 A2993 RMK A01 T02780208  RH  070%=      5-min Rain = 0
KASU 241450Z 08008KT 28/21 A2993 RMK A01 T02790208  RH  069%=      5-min Rain = 0
KASU 241455Z 08008KT 28/21 A2993 RMK A01 T02810209  RH  069%=      5-min Rain = 0
KASU 241500Z 07008KT 28/21 A2993 RMK A01 T02810207  RH  068%=      5-min Rain = 0
KASU 241505Z 07008KT 29/21 A2993 RMK A01 T02850210  RH  068%=      5-min Rain = 0
KASU 241510Z 07008KT 29/21 A2993 RMK A01 T02860210  RH  067%=      5-min Rain = 0
KASU 241515Z 07008KT 29/21 A2993 RMK A01 T02850208  RH  067%=      5-min Rain = 0
KASU 241520Z 08008KT 29/21 A2994 RMK A01 T02880209  RH  066%=      5-min Rain = 0
KASU 241525Z 07008KT 29/21 A2994 RMK A01 T02870207  RH  066%=      5-min Rain = 0
KASU 241530Z 07008KT 29/21 A2994 RMK A01 T02870206  RH  065%=      5-min Rain = 0
KASU 241535Z 08008G13KT 29/21 A2994 RMK A01 T02900208  RH  065%=      5-min Rain = 0
KASU 241540Z 09008KT 29/21 A2994 RMK A01 T02880205  RH  065%=      5-min Rain = 0
KASU 241545Z 08009KT 29/21 A2994 RMK A01 T02870206  RH  065%=      5-min Rain = 0
KASU 241550Z 08009KT 29/21 A2994 RMK A01 T02910207  RH  064%=      5-min Rain = 0
KASU 241555Z 06008KT 29/21 A2993 RMK A01 T02930206  RH  063%=      5-min Rain = 0
KASU 241600Z 07007G13KT 29/21 A2993 RMK A01 T02930207  RH  063%=      5-min Rain = 0
KASU 241605Z 07007G13KT 29/21 A2993 RMK A01 T02930206  RH  063%=      5-min Rain = 0
KASU 241610Z 09008KT 30/21 A2993 RMK A01 T02970208  RH  063%=      5-min Rain = 0
KASU 241615Z 07004KT 29/20 A2993 RMK A01 T02940203  RH  062%=      5-min Rain = 0
KASU 241620Z 07005KT 29/21 A2993 RMK A01 T02920207  RH  064%=      5-min Rain = 0
KASU 241625Z 09005G10KT 30/21 A2993 RMK A01 T02990210  RH  062%=      5-min Rain = 0
KASU 241630Z 08006G11KT 30/21 A2993 RMK A01 T03000208  RH  061%=      5-min Rain = 0
KASU 241635Z 06006KT 30/21 A2993 RMK A01 T03030206  RH  060%=      5-min Rain = 0
KASU 241640Z 09006KT 31/21 A2993 RMK A01 T03060209  RH  060%=      5-min Rain = 0
KASU 241645Z 08005G10KT 31/21 A2993 RMK A01 T03090208  RH  058%=      5-min Rain = 0
KASU 241650Z 09004G9KT 31/20 A2993 RMK A01 T03070203  RH  057%=      5-min Rain = 0
KASU 241655Z 10004KT 30/20 A2992 RMK A01 T03020204  RH  059%=      5-min Rain = 0
KASU 241700Z 12005KT 31/21 A2992 RMK A01 T03050205  RH  059%=      5-min Rain = 0
KASU 241705Z 10005KT 30/20 A2992 RMK A01 T03030204  RH  059%=      5-min Rain = 0
KASU 241710Z 10005KT 31/21 A2992 RMK A01 T03070205  RH  058%=      5-min Rain = 0
KASU 241715Z 08005KT 31/21 A2992 RMK A01 T03120205  RH  056%=      5-min Rain = 0
KASU 241720Z 11005KT 31/20 A2992 RMK A01 T03060202  RH  057%=      5-min Rain = 0
KASU 241725Z 09005G10KT 31/21 A2991 RMK A01 T03130207  RH  056%=      5-min Rain = 0
KASU 241730Z 10004KT 31/20 A2991 RMK A01 T03120202  RH  055%=      5-min Rain = 0
KASU 241735Z 12006G11KT 32/21 A2991 RMK A01 T03160206  RH  055%=      5-min Rain = 0
KASU 241740Z 12004G10KT 32/20 A2991 RMK A01 T03160202  RH  054%=      5-min Rain = 0
KASU 241745Z 12008KT 32/20 A2991 RMK A01 T03170203  RH  054%=      5-min Rain = 0
KASU 241750Z 11004KT 32/20 A2991 RMK A01 T03210202  RH  053%=      5-min Rain = 0
KASU 241755Z 16003KT 32/20 A2991 RMK A01 T03170197  RH  052%=      5-min Rain = 0
KASU 241805Z 15003KT 32/20 A2991 RMK A01 T03150200  RH  054%=      5-min Rain = 0
KASU 241810Z 16007G13KT 32/20 A2991 RMK A01 T03170197  RH  052%=      5-min Rain = 0
KASU 241815Z 12004KT 32/20 A299 RMK A01 T03240197  RH  050%=      5-min Rain = 0
KASU 241820Z 13007G13KT 32/20 A299 RMK A01 T03230199  RH  051%=      5-min Rain = 0
KASU 241825Z 11005KT 33/20 A299 RMK A01 T03250199  RH  050%=      5-min Rain = 0
KASU 241830Z 16005G10KT 32/20 A299 RMK A01 T03230195  RH  050%=      5-min Rain = 0
KASU 241835Z 12003KT 33/20 A299 RMK A01 T03270196  RH  049%=      5-min Rain = 0
KASU 241840Z 13003KT 33/20 A299 RMK A01 T03290198  RH  049%=      5-min Rain = 0
KASU 241845Z 15004KT 33/21 A2989 RMK A01 T03340205  RH  050%=      5-min Rain = 0
KASU 241850Z 11004KT 33/20 A2989 RMK A01 T03300197  RH  048%=      5-min Rain = 0
KASU 241855Z 09005KT 33/20 A2989 RMK A01 T03280200  RH  050%=      5-min Rain = 0
KASU 241900Z 12005KT 33/20 A2989 RMK A01 T03310202  RH  049%=      5-min Rain = 0
KASU 241905Z 14002KT 33/20 A2989 RMK A01 T03340200  RH  048%=      5-min Rain = 0
KASU 241910Z 10004KT 34/20 A2989 RMK A01 T03360203  RH  049%=      5-min Rain = 0
KASU 241915Z 10003G8KT 33/20 A2989 RMK A01 T03290199  RH  049%=      5-min Rain = 0
KASU 241920Z 09005KT 32/20 A2988 RMK A01 T03240203  RH  052%=      5-min Rain = 0
KASU 241925Z 14006KT 32/20 A2988 RMK A01 T03230200  RH  051%=      5-min Rain = 0
KASU 241930Z 15007KT 33/20 A2988 RMK A01 T03340203  RH  049%=      5-min Rain = 0
KASU 241935Z 12004G10KT 34/20 A2988 RMK A01 T03370198  RH  047%=      5-min Rain = 0
KASU 241940Z 11003KT 34/20 A2987 RMK A01 T03420195  RH  044%=      5-min Rain = 0
KASU 241945Z 08005G10KT 34/20 A2987 RMK A01 T03430202  RH  046%=      5-min Rain = 0
KASU 241950Z 11008KT 34/20 A2987 RMK A01 T03370199  RH  047%=      5-min Rain = 0
KASU 241955Z 07006KT 34/20 A2987 RMK A01 T03420200  RH  046%=      5-min Rain = 0
KASU 242000Z 10004KT 35/19 A2987 RMK A01 T03450194  RH  044%=      5-min Rain = 0
KASU 242005Z 08004G10KT 35/20 A2986 RMK A01 T03460203  RH  046%=      5-min Rain = 0
KASU 242010Z 09005G11KT 34/20 A2986 RMK A01 T03440202  RH  046%=      5-min Rain = 0
KASU 242015Z 12008KT 35/20 A2986 RMK A01 T03450200  RH  045%=      5-min Rain = 0
KASU 242020Z 08006G12KT 34/20 A2986 RMK A01 T03410197  RH  046%=      5-min Rain = 0
KASU 242025Z 13005KT 35/19 A2985 RMK A01 T03480193  RH  043%=      5-min Rain = 0
KASU 242030Z 12004KT 34/19 A2985 RMK A01 T03400186  RH  043%=      5-min Rain = 0
KASU 242035Z 16002KT 34/19 A2984 RMK A01 T03410185  RH  042%=      5-min Rain = 0
KASU 242040Z 09002KT 35/19 A2984 RMK A01 T03500185  RH  040%=      5-min Rain = 0
KASU 242045Z 16002G7KT 36/18 A2984 RMK A01 T03560180  RH  037%=      5-min Rain = 0
KASU 242050Z 12004KT 35/18 A2984 RMK A01 T03500175  RH  037%=      5-min Rain = 0
KASU 242055Z 13002G7KT 35/18 A2984 RMK A01 T03530179  RH  038%=      5-min Rain = 0
KASU 242100Z 16006KT 35/19 A2984 RMK A01 T03540185  RH  039%=      5-min Rain = 0
KASU 242105Z 16008KT 35/19 A2984 RMK A01 T03540185  RH  039%=      5-min Rain = 0
KASU 242110Z 16006KT 35/18 A2984 RMK A01 T03490183  RH  040%=      5-min Rain = 0
KASU 242115Z 14002KT 35/18 A2983 RMK A01 T03540179  RH  038%=      5-min Rain = 0
KASU 242120Z 13006G11KT 36/19 A2983 RMK A01 T03560189  RH  040%=      5-min Rain = 0
KASU 242125Z 13007KT 35/18 A2983 RMK A01 T03460184  RH  040%=      5-min Rain = 0
KASU 242130Z 14007G13KT 34/18 A2983 RMK A01 T03420182  RH  041%=      5-min Rain = 0
KASU 242135Z 09013G22KT 32/17 A2983 RMK A01 T03230169  RH  042%=      5-min Rain = 0
KASU 242140Z 09018G24KT 32/15 A2983 RMK A01 T03170152  RH  039%=      5-min Rain = 0
KASU 242145Z 08014G21KT 31/14 A2983 RMK A01 T03120141  RH  037%=      5-min Rain = 0
KASU 242150Z 07012G19KT 31/14 A2983 RMK A01 T03060144  RH  039%=      5-min Rain = 0
KASU 242155Z 07015G22KT 31/14 A2982 RMK A01 T03080141  RH  038%=      5-min Rain = 0
KASU 242200Z 08014KT 31/14 A2982 RMK A01 T03060135  RH  037%=      5-min Rain = 0
KASU 242205Z 07015G20KT 31/14 A2982 RMK A01 T03060138  RH  038%=      5-min Rain = 0
KASU 242210Z 07014G19KT 30/14 A2981 RMK A01 T03030144  RH  040%=      5-min Rain = 0
KASU 242215Z 08014KT 31/14 A2981 RMK A01 T03100144  RH  038%=      5-min Rain = 0
KASU 242220Z 09014G19KT 32/14 A2981 RMK A01 T03190141  RH  035%=      5-min Rain = 0
KASU 242225Z 09019G28KT 32/14 A298 RMK A01 T03210136  RH  034%=      5-min Rain = 0
KASU 242230Z 09022G29KT 31/14 A298 RMK A01 T03050141  RH  039%=      5-min Rain = 0
KASU 242235Z 10017G26KT 29/14 A2979 RMK A01 T02930135  RH  040%=      5-min Rain = 0
KASU 242240Z 09017G22KT 28/13 A2979 RMK A01 T02840131  RH  041%=      5-min Rain = 0
KASU 242245Z 07014G21KT 28/13 A298 RMK A01 T02810128  RH  040%=      5-min Rain = 0
KASU 242250Z 06012G17KT 28/13 A298 RMK A01 T02830127  RH  040%=      5-min Rain = 0
KASU 242255Z 07012KT 28/13 A2979 RMK A01 T02830129  RH  040%=      5-min Rain = 0
KASU 242300Z 07009KT 28/13 A2979 RMK A01 T02810132  RH  042%=      5-min Rain = 0
KASU 242305Z 07011KT 28/14 A2978 RMK A01 T02810135  RH  042%=      5-min Rain = 0
KASU 242310Z 09014G20KT 28/14 A2981 RMK A01 T02780135  RH  043%=      5-min Rain = 0
KASU 242315Z 11015G21KT 27/15 A2984 RMK A01 T02660145  RH  050%=      5-min Rain = 0.01
KASU 242320Z 07017G24KT 23/15 A2984 RMK A01 T02340154  RH  064%=      5-min Rain = 0.1
KASU 242325Z 05014G25KT 22/16 A2983 RMK A01 T02170159  RH  073%=      5-min Rain = 0.11
KASU 242330Z 09021G31KT 22/17 A2983 RMK A01 T02160166  RH  077%=      5-min Rain = 0.18
KASU 242335Z 07014G20KT 21/17 A2985 RMK A01 T02120169  RH  080%=      5-min Rain = 0.05
KASU 242340Z 08012G18KT 21/18 A2988 RMK A01 T02140176  RH  083%=      5-min Rain = 0.03
KASU 242345Z 27006G15KT 21/18 A2993 RMK A01 T02120175  RH  084%=      5-min Rain = 0.05
KASU 242350Z 32012G24KT 21/18 A2995 RMK A01 T02120176  RH  084%=      5-min Rain = 0
KASU 242355Z 33009G19KT 22/17 A2996 RMK A01 T02150173  RH  081%=      5-min Rain = 0.12
KASU 250000Z 03007G15KT 20/17 A2994 RMK A01 T02040168  RH  084%=      5-min Rain = 0.14
KASU 250005Z 09012KT 20/17 A299 RMK A01 T01980167  RH  086%=      5-min Rain = 0.15
KASU 250010Z 09011KT 20/17 A2988 RMK A01 T01980169  RH  088%=      5-min Rain = 0.01
KASU 250015Z 09006G14KT 20/17 A2985 RMK A01 T01970170  RH  089%=      5-min Rain = 0.02
KASU 250020Z 08005KT 20/17 A2984 RMK A01 T01980171  RH  089%=      5-min Rain = 0
KASU 250025Z 08009G14KT 20/17 A2983 RMK A01 T01990173  RH  090%=      5-min Rain = 0.03
KASU 250030Z 09008G13KT 20/17 A2983 RMK A01 T01990174  RH  090%=      5-min Rain = 0.01
KASU 250035Z 12008G13KT 20/18 A2984 RMK A01 T02000175  RH  090%=      5-min Rain = 0
KASU 250040Z 12013G20KT 20/17 A2985 RMK A01 T01990174  RH  090%=      5-min Rain = 0
KASU 250045Z 10013G18KT 20/17 A2985 RMK A01 T01980171  RH  089%=      5-min Rain = 0
KASU 250050Z 12013G23KT 20/17 A2986 RMK A01 T01970166  RH  086%=      5-min Rain = 0
KASU 250055Z 12014G21KT 20/16 A2987 RMK A01 T01970158  RH  082%=      5-min Rain = 0
KASU 250100Z 12013G19KT 20/15 A2987 RMK A01 T01970154  RH  080%=      5-min Rain = 0
KASU 250105Z 12012G19KT 20/15 A2989 RMK A01 T01990153  RH  078%=      5-min Rain = 0
KASU 250110Z 10007G15KT 20/15 A299 RMK A01 T01990152  RH  078%=      5-min Rain = 0
KASU 250115Z 13004KT 20/15 A2991 RMK A01 T01990153  RH  078%=      5-min Rain = 0
KASU 250120Z 11007KT 20/16 A2991 RMK A01 T01980155  RH  080%=      5-min Rain = 0.04
KASU 250125Z 11009KT 19/16 A2993 RMK A01 T01940155  RH  082%=      5-min Rain = 0.01
KASU 250130Z 14011KT 19/16 A2994 RMK A01 T01930155  RH  082%=      5-min Rain = 0.01
KASU 250135Z 16008KT 19/16 A2996 RMK A01 T01930155  RH  082%=      5-min Rain = 0.07
KASU 250140Z 16006KT 19/15 A2994 RMK A01 T01910153  RH  082%=      5-min Rain = 0.03
KASU 250145Z 15008KT 19/15 A2992 RMK A01 T01900154  RH  083%=      5-min Rain = 0.01
KASU 250150Z 14010KT 19/15 A2991 RMK A01 T01880154  RH  084%=      5-min Rain = 0
KASU 250155Z 13011KT 19/15 A2989 RMK A01 T01890150  RH  082%=      5-min Rain = 0
KASU 250200Z 13011G16KT 19/15 A2989 RMK A01 T01900146  RH  079%=      5-min Rain = 0
KASU 250205Z 12009G14KT 19/15 A2989 RMK A01 T01910145  RH  078%=      5-min Rain = 0
KASU 250210Z 13008KT 19/14 A299 RMK A01 T01910144  RH  078%=      5-min Rain = 0
KASU 250215Z 14006KT 19/14 A299 RMK A01 T01910144  RH  078%=      5-min Rain = 0
KASU 250220Z 16006KT 19/15 A2991 RMK A01 T01910146  RH  078%=      5-min Rain = 0
KASU 250225Z 20008KT 19/15 A2991 RMK A01 T01930149  RH  079%=      5-min Rain = 0
KASU 250230Z 19008KT 19/15 A2991 RMK A01 T01940150  RH  079%=      5-min Rain = 0
KASU 250235Z 15007KT 19/15 A299 RMK A01 T01940149  RH  078%=      5-min Rain = 0
KASU 250240Z 14006KT 20/15 A2989 RMK A01 T01950149  RH  078%=      5-min Rain = 0
KASU 250245Z 14006KT 19/15 A299 RMK A01 T01940151  RH  080%=      5-min Rain = 0
KASU 250250Z 14007KT 19/15 A2991 RMK A01 T01940153  RH  080%=      5-min Rain = 0
KASU 250255Z 13006KT 20/15 A2991 RMK A01 T01960153  RH  080%=      5-min Rain = 0
KASU 250300Z 13006KT 20/15 A2993 RMK A01 T01960152  RH  079%=      5-min Rain = 0
KASU 250305Z 15004KT 20/15 A2994 RMK A01 T01950151  RH  079%=      5-min Rain = 0
KASU 250310Z 15004KT 20/15 A2994 RMK A01 T01970152  RH  079%=      5-min Rain = 0
KASU 250315Z 15004KT 20/15 A2995 RMK A01 T01970154  RH  079%=      5-min Rain = 0
KASU 250320Z 13005KT 20/16 A2994 RMK A01 T01980155  RH  080%=      5-min Rain = 0
KASU 250325Z 16004KT 20/16 A2994 RMK A01 T01980157  RH  081%=      5-min Rain = 0
KASU 250330Z 12003KT 20/16 A2994 RMK A01 T01990158  RH  081%=      5-min Rain = 0
KASU 250335Z 08007KT 20/16 A2994 RMK A01 T01960157  RH  082%=      5-min Rain = 0
KASU 250340Z 09008KT 19/16 A2993 RMK A01 T01940157  RH  083%=      5-min Rain = 0
KASU 250345Z 08008KT 19/16 A2993 RMK A01 T01940158  RH  084%=      5-min Rain = 0
KASU 250350Z 08009KT 19/16 A2992 RMK A01 T01940158  RH  083%=      5-min Rain = 0
KASU 250355Z 08007KT 20/16 A2993 RMK A01 T01970157  RH  082%=      5-min Rain = 0
KASU 250400Z 10007KT 20/16 A2992 RMK A01 T01990158  RH  081%=      5-min Rain = 0
KASU 250405Z 09008KT 20/16 A2992 RMK A01 T02000159  RH  081%=      5-min Rain = 0
KASU 250410Z 08009KT 20/16 A2992 RMK A01 T02020161  RH  081%=      5-min Rain = 0
KASU 250415Z 07008G13KT 21/17 A2992 RMK A01 T02050165  RH  082%=      5-min Rain = 0
KASU 250420Z 07008KT 21/17 A2992 RMK A01 T02090170  RH  082%=      5-min Rain = 0
KASU 250425Z 08007KT 21/17 A2992 RMK A01 T02100170  RH  082%=      5-min Rain = 0
KASU 250430Z 09006KT 21/17 A2992 RMK A01 T02100169  RH  082%=      5-min Rain = 0
KASU 250435Z 20003KT 21/17 A2994 RMK A01 T02100170  RH  082%=      5-min Rain = 0
KASU 250440Z 24004KT 21/17 A2995 RMK A01 T02120170  RH  081%=      5-min Rain = 0
KASU 250445Z 25002KT 21/17 A2995 RMK A01 T02110169  RH  081%=      5-min Rain = 0
KASU 250450Z 14006KT 21/17 A2993 RMK A01 T02100169  RH  081%=      5-min Rain = 0
KASU 250455Z 14006KT 21/17 A2992 RMK A01 T02070170  RH  084%=      5-min Rain = 0

Page generated in 0.0155 seconds.